Time;durP1;ratioP1;P1;durP2;ratioP2;P2;SDS_P1;SDS_P2;PMS_P1;PMS_P2;Temp;Humidity;BMP_temperature;BMP_pressure;BME280_temperature;BME280_humidity;BME280_pressure;Samples;Min_cycle;Max_cycle;Signal;HPM_P1;HPM_P2
2022/11/03 00:01:36;;;;;;;11.52;2.10;;;10.90;99.90;;;;;;4907291;29;20045;-64
2022/11/03 00:04:03;;;;;;;8.35;1.85;;;10.90;99.90;;;;;;4925632;29;20054;-64
2022/11/03 00:06:29;;;;;;;12.02;2.42;;;10.90;99.90;;;;;;4907146;29;20072;-64
2022/11/03 00:08:57;;;;;;;13.15;2.58;;;10.90;99.90;;;;;;4925477;29;20044;-64
2022/11/03 00:11:23;;;;;;;10.93;2.60;;;11.00;99.90;;;;;;4924376;29;20055;-63
2022/11/03 00:13:48;;;;;;;13.50;2.70;;;11.00;99.90;;;;;;4924559;29;20040;-65
2022/11/03 00:16:14;;;;;;;11.82;2.35;;;11.00;99.90;;;;;;4908044;29;20132;-65
2022/11/03 00:18:40;;;;;;;13.70;2.13;;;11.00;99.90;;;;;;4923800;29;20052;-64
2022/11/03 00:21:11;;;;;;;12.15;2.50;;;11.00;99.90;;;;;;4925326;29;20076;-65
2022/11/03 00:23:39;;;;;;;11.20;2.60;;;11.00;99.90;;;;;;4923959;29;20062;-65
2022/11/03 00:26:08;;;;;;;16.10;3.08;;;11.00;99.90;;;;;;4907697;29;20055;-63
2022/11/03 00:28:35;;;;;;;14.85;2.53;;;11.00;99.90;;;;;;4924441;29;20500;-64
2022/11/03 00:31:05;;;;;;;10.27;2.00;;;10.90;99.90;;;;;;4906923;29;20048;-65
2022/11/03 00:33:31;;;;;;;11.07;2.38;;;10.90;99.90;;;;;;4924848;29;20028;-64
2022/11/03 00:36:01;;;;;;;14.90;2.70;;;10.90;99.90;;;;;;4923549;29;20054;-65
2022/11/03 00:38:28;;;;;;;12.45;2.53;;;10.90;99.90;;;;;;4924918;29;20048;-64
2022/11/03 00:40:59;;;;;;;14.00;2.25;;;10.90;99.90;;;;;;4923525;29;20044;-64
2022/11/03 00:43:27;;;;;;;14.70;2.65;;;10.90;99.90;;;;;;4924586;29;20058;-64
2022/11/03 00:45:53;;;;;;;12.90;2.30;;;10.80;99.90;;;;;;4907457;29;20047;-64
2022/11/03 00:48:28;;;;;;;12.32;2.33;;;10.80;99.90;;;;;;4906751;29;20110;-64
2022/11/03 00:50:59;;;;;;;10.77;2.15;;;10.80;99.90;;;;;;4924570;29;20059;-64
2022/11/03 00:53:24;;;;;;;11.60;2.40;;;10.80;99.90;;;;;;4923384;29;20123;-64
2022/11/03 00:55:50;;;;;;;11.55;2.25;;;10.70;99.90;;;;;;4924336;29;20051;-65
2022/11/03 00:58:15;;;;;;;11.27;2.30;;;10.70;99.90;;;;;;4923737;29;20044;-65
2022/11/03 01:00:41;;;;;;;8.48;2.60;;;10.70;99.90;;;;;;4923979;29;20043;-65
2022/11/03 01:03:07;;;;;;;10.80;3.85;;;10.70;99.90;;;;;;4924185;29;20082;-64
2022/11/03 01:08:17;;;;;;;13.32;2.78;;;10.60;99.90;;;;;;4924685;29;20129;-64
2022/11/03 01:13:27;;;;;;;13.95;2.63;;;10.60;99.90;;;;;;4924055;29;20055;-66
2022/11/03 01:15:57;;;;;;;12.18;2.42;;;10.60;99.90;;;;;;4923799;29;20408;-66
2022/11/03 01:18:23;;;;;;;8.73;1.77;;;10.50;99.90;;;;;;4922931;29;20176;-65
2022/11/03 01:20:55;;;;;;;17.85;2.97;;;10.50;99.90;;;;;;4924101;29;20107;-66
2022/11/03 01:23:22;;;;;;;11.73;2.30;;;10.50;99.90;;;;;;4922843;29;20052;-66
2022/11/03 01:25:48;;;;;;;13.95;3.17;;;10.50;99.90;;;;;;4923876;29;20393;-65
2022/11/03 01:28:14;;;;;;;12.07;2.80;;;10.40;99.90;;;;;;4922900;29;20051;-65
2022/11/03 01:30:40;;;;;;;13.27;2.50;;;10.50;99.90;;;;;;4923042;29;20044;-65
2022/11/03 01:33:05;;;;;;;14.85;2.80;;;10.50;99.90;;;;;;4906133;29;20040;-64
2022/11/03 01:35:31;;;;;;;16.58;3.75;;;10.40;99.90;;;;;;4922684;29;20552;-64
2022/11/03 01:37:57;;;;;;;13.82;2.40;;;10.50;99.90;;;;;;4923754;29;20054;-64
2022/11/03 01:40:23;;;;;;;11.43;2.90;;;10.40;99.90;;;;;;4922175;29;20048;-65
2022/11/03 01:42:48;;;;;;;14.02;2.80;;;10.40;99.90;;;;;;4923545;29;20099;-64
2022/11/03 01:45:14;;;;;;;13.60;2.67;;;10.40;99.90;;;;;;4922290;29;20044;-64
2022/11/03 01:47:42;;;;;;;15.82;4.25;;;10.40;99.90;;;;;;4923157;29;20182;-64
2022/11/03 01:50:12;;;;;;;10.85;2.25;;;10.40;99.90;;;;;;4923079;29;20128;-64
2022/11/03 01:52:49;;;;;;;20.80;2.75;;;10.30;99.90;;;;;;4905600;29;20056;-64
2022/11/03 01:55:20;;;;;;;13.52;2.15;;;10.80;99.90;;;;;;4923530;29;20052;-64
2022/11/03 01:57:53;;;;;;;13.07;2.77;;;10.30;99.90;;;;;;4921849;29;20059;-64
2022/11/03 02:00:19;;;;;;;12.02;2.35;;;10.30;99.90;;;;;;4923234;29;20056;-64
2022/11/03 02:02:45;;;;;;;17.10;2.75;;;10.20;99.90;;;;;;4905536;29;20051;-64
2022/11/03 02:05:13;;;;;;;7.43;2.10;;;10.30;99.90;;;;;;4922453;29;20043;-64
2022/11/03 02:08:05;;;;;;;10.52;2.45;;;10.30;99.90;;;;;;4922148;29;20071;-64
2022/11/03 02:10:31;;;;;;;9.30;2.13;;;10.30;99.90;;;;;;4913944;29;20052;-64
2022/11/03 02:12:57;;;;;;;12.40;2.42;;;10.20;99.90;;;;;;4906038;29;20044;-64
2022/11/03 02:15:23;;;;;;;10.20;2.33;;;10.10;99.90;;;;;;4922342;29;20056;-64
2022/11/03 02:17:52;;;;;;;11.55;2.00;;;10.20;99.90;;;;;;4922627;29;20123;-64
2022/11/03 02:20:22;;;;;;;12.45;2.28;;;10.20;99.90;;;;;;4922648;29;20108;-64
2022/11/03 02:23:00;;;;;;;13.82;2.70;;;10.20;99.90;;;;;;4904576;29;20054;-64
2022/11/03 02:25:46;;;;;;;17.85;3.08;;;10.20;99.90;;;;;;4923240;29;20079;-64
2022/11/03 02:28:16;;;;;;;8.50;2.38;;;10.20;99.90;;;;;;4905129;29;20044;-64
2022/11/03 02:31:10;;;;;;;15.02;2.67;;;10.20;99.90;;;;;;4922342;29;20374;-64
2022/11/03 02:33:54;;;;;;;12.73;2.40;;;10.30;99.90;;;;;;4922924;29;20131;-64
2022/11/03 02:36:27;;;;;;;13.88;3.10;;;10.30;99.90;;;;;;4921985;29;20063;-64
2022/11/03 02:39:17;;;;;;;17.17;3.67;;;10.10;99.90;;;;;;4922843;29;20044;-64
2022/11/03 02:41:45;;;;;;;14.48;2.67;;;10.20;99.90;;;;;;4922311;29;20063;-64
2022/11/03 02:44:15;;;;;;;13.75;2.97;;;10.20;99.90;;;;;;4921611;29;20072;-64
2022/11/03 02:46:44;;;;;;;12.63;2.83;;;10.30;99.90;;;;;;4923054;29;20054;-64
2022/11/03 02:49:10;;;;;;;13.35;2.40;;;10.30;99.90;;;;;;4921685;29;20067;-64
2022/11/03 02:51:35;;;;;;;11.98;2.88;;;10.30;99.90;;;;;;4922920;29;20056;-64
2022/11/03 02:54:22;;;;;;;13.65;2.70;;;10.30;99.90;;;;;;4921850;29;20071;-64
2022/11/03 02:57:10;;;;;;;12.02;2.60;;;10.40;99.90;;;;;;4921592;29;20052;-64
2022/11/03 02:59:45;;;;;;;10.43;2.10;;;10.40;99.90;;;;;;4922926;29;20068;-64
2022/11/03 03:02:18;;;;;;;17.52;2.67;;;10.40;99.90;;;;;;4904352;29;20460;-64
2022/11/03 03:04:54;;;;;;;14.57;3.00;;;10.50;99.90;;;;;;4922366;29;20052;-64
2022/11/03 03:07:33;;;;;;;13.77;2.38;;;10.40;99.90;;;;;;4922544;29;20048;-65
2022/11/03 03:10:05;;;;;;;14.15;2.53;;;10.50;99.90;;;;;;4921694;29;20071;-65
2022/11/03 03:12:32;;;;;;;;;;;10.40;99.90;;;;;;4923095;29;20048;-64
2022/11/03 03:15:01;;;;;;;14.38;2.50;;;10.50;99.90;;;;;;4904344;29;19927;-66
2022/11/03 03:17:32;;;;;;;12.27;2.65;;;10.50;99.90;;;;;;4922412;29;20048;-66
2022/11/03 03:20:35;;;;;;;12.48;2.72;;;10.50;99.90;;;;;;4924892;29;20051;-65
2022/11/03 03:23:15;;;;;;;12.02;2.67;;;10.50;99.90;;;;;;4919314;29;20491;-63
2022/11/03 03:25:45;;;;;;;14.20;3.05;;;10.60;99.90;;;;;;4926397;29;20044;-65
2022/11/03 03:28:20;;;;;;;13.95;2.65;;;10.60;99.90;;;;;;4925155;29;20606;-65
2022/11/03 03:30:47;;;;;;;13.60;2.70;;;10.60;99.90;;;;;;4925478;29;20048;-65
2022/11/03 03:33:14;;;;;;;13.90;2.75;;;10.60;99.90;;;;;;4926021;29;20036;-65
2022/11/03 03:35:43;;;;;;;15.15;2.90;;;10.60;99.90;;;;;;4924696;29;20055;-65
2022/11/03 03:38:15;;;;;;;18.10;3.00;;;10.60;99.90;;;;;;4926316;29;20043;-65
2022/11/03 03:40:43;;;;;;;15.85;2.45;;;10.60;99.90;;;;;;4924671;29;20044;-64
2022/11/03 03:43:12;;;;;;;15.60;3.03;;;10.60;99.90;;;;;;4925676;29;20072;-65
2022/11/03 03:45:39;;;;;;;9.60;2.30;;;10.70;99.90;;;;;;4908065;29;20066;-64
2022/11/03 03:48:05;;;;;;;11.18;2.70;;;10.60;99.90;;;;;;4924643;29;20040;-64
2022/11/03 03:50:36;;;;;;;13.70;2.88;;;10.70;99.90;;;;;;4916005;29;20067;-64
2022/11/03 03:53:04;;;;;;;16.92;3.25;;;10.60;99.90;;;;;;4921995;29;20041;-64
2022/11/03 03:55:36;;;;;;;12.48;2.63;;;10.60;99.90;;;;;;4906708;29;20052;-63
2022/11/03 03:58:03;;;;;;;13.13;3.70;;;10.60;99.90;;;;;;4911435;29;20064;-64
2022/11/03 04:00:29;;;;;;;12.85;2.72;;;10.60;99.90;;;;;;4924934;29;20060;-64
2022/11/03 04:02:58;;;;;;;13.18;2.90;;;10.60;99.90;;;;;;4924957;29;20052;-64
2022/11/03 04:05:24;;;;;;;12.07;3.58;;;10.60;99.90;;;;;;4924207;29;20058;-63
2022/11/03 04:07:50;;;;;;;12.52;2.78;;;10.50;99.90;;;;;;4909650;29;20041;-63
2022/11/03 04:10:19;;;;;;;12.60;2.90;;;10.60;99.90;;;;;;4904995;29;20051;-64
2022/11/03 04:23:43;;;;;;;13.68;2.72;;;10.50;99.90;;;;;;4911673;29;20103;-63
2022/11/03 04:26:15;;;;;;;17.00;2.80;;;10.40;99.90;;;;;;4924075;29;20048;-64
2022/11/03 04:28:41;;;;;;;14.90;3.80;;;10.30;99.90;;;;;;4924585;29;20508;-63
2022/11/03 04:31:14;;;;;;;10.32;2.25;;;10.40;99.90;;;;;;4923018;29;20048;-63
2022/11/03 04:33:41;;;;;;;11.45;2.58;;;10.30;99.90;;;;;;4924874;29;20052;-64
2022/11/03 04:36:12;;;;;;;18.30;3.47;;;10.40;99.90;;;;;;4923399;29;20072;-64
2022/11/03 04:38:38;;;;;;;13.70;2.75;;;10.40;99.90;;;;;;4924737;29;20064;-63
2022/11/03 04:41:21;;;;;;;12.98;2.60;;;10.40;99.90;;;;;;4923369;29;20044;-63
2022/11/03 04:43:48;;;;;;;11.50;2.78;;;10.40;99.90;;;;;;4923834;29;20516;-64
2022/11/03 04:46:24;;;;;;;11.45;2.78;;;10.30;99.90;;;;;;4907124;29;20054;-63
2022/11/03 04:48:52;;;;;;;16.08;2.97;;;10.30;99.90;;;;;;4923343;29;20044;-64
2022/11/03 04:51:23;;;;;;;12.25;3.03;;;10.30;99.90;;;;;;4924545;29;20599;-64
2022/11/03 04:53:52;;;;;;;15.02;2.55;;;10.40;99.90;;;;;;4923426;29;20048;-64
2022/11/03 04:56:22;;;;;;;10.98;2.33;;;10.30;99.90;;;;;;4923655;29;20044;-64
2022/11/03 04:58:47;;;;;;;12.45;2.22;;;10.40;99.90;;;;;;4923894;29;20051;-64
2022/11/03 05:01:16;;;;;;;14.20;2.50;;;10.40;99.90;;;;;;4923102;29;20112;-64
2022/11/03 05:03:43;;;;;;;15.10;2.08;;;10.40;99.90;;;;;;4924181;29;20051;-64
2022/11/03 05:06:14;;;;;;;13.25;2.67;;;10.30;99.90;;;;;;4922907;29;20086;-64
2022/11/03 05:08:42;;;;;;;10.60;2.40;;;10.30;99.90;;;;;;4924207;29;20048;-65
2022/11/03 05:11:20;;;;;;;11.90;2.83;;;10.30;99.90;;;;;;4923132;29;20050;-63
2022/11/03 05:13:46;;;;;;;14.55;2.42;;;10.30;99.90;;;;;;4923124;29;20095;-64
2022/11/03 05:16:12;;;;;;;11.25;2.42;;;10.30;99.90;;;;;;4923833;29;20083;-65
2022/11/03 05:18:43;;;;;;;13.80;2.45;;;10.30;99.90;;;;;;4922409;29;20060;-64
2022/11/03 05:21:15;;;;;;;9.13;2.45;;;10.20;99.90;;;;;;4924184;29;20114;-64
2022/11/03 05:23:44;;;;;;;13.02;2.22;;;10.30;99.90;;;;;;4922909;29;20504;-64
2022/11/03 05:26:28;;;;;;;9.82;2.10;;;10.30;99.90;;;;;;4890829;29;20110;-64
2022/11/03 05:29:01;;;;;;;9.82;2.45;;;10.20;99.90;;;;;;4923685;29;20044;-64
2022/11/03 05:31:29;;;;;;;14.35;2.50;;;10.30;99.90;;;;;;4922233;29;20568;-64
2022/11/03 05:34:00;;;;;;;12.52;2.67;;;10.20;99.90;;;;;;4923845;29;20051;-64
2022/11/03 05:36:29;;;;;;;10.98;2.30;;;10.30;99.90;;;;;;4922573;29;20052;-64
2022/11/03 05:39:27;;;;;;;12.50;2.60;;;10.20;99.90;;;;;;4923488;29;20051;-64
2022/11/03 05:41:54;;;;;;;11.02;2.47;;;10.20;99.90;;;;;;4915883;29;20052;-63
2022/11/03 05:44:36;;;;;;;13.93;2.60;;;10.20;99.90;;;;;;4889709;29;20059;-64
2022/11/03 05:47:17;;;;;;;12.57;2.58;;;10.30;99.90;;;;;;4923478;29;20432;-64
2022/11/03 05:49:43;;;;;;;13.63;3.10;;;10.30;99.90;;;;;;4922854;29;20444;-63
2022/11/03 05:52:18;;;;;;;11.38;2.45;;;10.30;99.90;;;;;;4922694;29;20068;-64
2022/11/03 05:54:44;;;;;;;12.07;2.90;;;10.30;99.90;;;;;;4922962;29;20075;-64
2022/11/03 05:57:14;;;;;;;12.30;2.22;;;10.30;99.90;;;;;;4920838;29;20088;-64
2022/11/03 05:59:39;;;;;;;12.40;2.47;;;10.30;99.90;;;;;;4887504;29;20080;-64
2022/11/03 06:02:38;;;;;;;11.32;2.13;;;10.30;99.90;;;;;;4902894;29;20125;-62
2022/11/03 06:05:17;;;;;;;12.18;2.72;;;10.30;99.90;;;;;;4890795;29;20048;-64
2022/11/03 06:07:43;;;;;;;12.02;2.42;;;10.20;99.90;;;;;;4886742;29;20634;-64
2022/11/03 06:10:25;;;;;;;12.50;2.38;;;10.30;99.90;;;;;;4902638;29;20045;-64
2022/11/03 06:12:54;;;;;;;13.02;2.47;;;10.30;99.90;;;;;;4903788;29;20083;-64
2022/11/03 06:15:32;;;;;;;13.98;3.28;;;10.40;99.90;;;;;;4903471;29;20051;-63
2022/11/03 06:17:59;;;;;;;7.78;2.05;;;10.20;99.90;;;;;;4884487;29;20048;-63
2022/11/03 06:20:25;;;;;;;12.05;2.63;;;10.30;99.90;;;;;;4916119;29;20099;-63
2022/11/03 06:22:55;;;;;;;13.02;2.80;;;10.30;99.90;;;;;;4917176;29;20060;-63
2022/11/03 06:25:21;;;;;;;11.90;2.55;;;10.30;99.90;;;;;;4917837;29;20047;-63
2022/11/03 06:27:46;;;;;;;14.13;3.05;;;10.30;99.90;;;;;;4917825;29;20096;-63
2022/11/03 06:30:20;;;;;;;11.40;2.40;;;10.30;99.90;;;;;;4918508;29;20094;-63
2022/11/03 06:32:46;;;;;;;9.18;2.35;;;10.40;99.90;;;;;;4918178;29;20062;-63
2022/11/03 06:35:13;;;;;;;13.55;3.00;;;10.50;99.90;;;;;;4918308;29;20036;-63
2022/11/03 06:37:40;;;;;;;11.27;2.55;;;10.40;99.90;;;;;;4918923;29;20044;-63
2022/11/03 06:40:08;;;;;;;12.48;2.75;;;10.40;99.90;;;;;;4917860;29;20048;-64
2022/11/03 06:42:35;;;;;;;13.95;2.53;;;10.10;99.90;;;;;;4918648;29;20048;-63
2022/11/03 06:45:11;;;;;;;12.70;2.10;;;10.40;99.90;;;;;;4918102;29;20125;-63
2022/11/03 06:47:39;;;;;;;15.70;2.85;;;10.40;99.90;;;;;;4918465;29;20063;-63
2022/11/03 06:50:31;;;;;;;9.75;2.28;;;10.40;99.90;;;;;;4901370;29;20063;-63
2022/11/03 06:53:00;;;;;;;11.90;2.38;;;10.50;99.90;;;;;;4902505;29;20060;-64
2022/11/03 06:55:29;;;;;;;7.50;2.20;;;10.60;99.90;;;;;;4922258;29;20060;-64
2022/11/03 06:58:03;;;;;;;10.50;2.25;;;10.50;99.90;;;;;;4918105;29;20060;-64
2022/11/03 07:00:30;;;;;;;11.75;2.70;;;10.50;99.90;;;;;;4919682;29;20520;-63
2022/11/03 07:03:21;;;;;;;13.95;2.50;;;10.60;99.90;;;;;;4922022;29;20054;-65
2022/11/03 07:05:47;;;;;;;7.68;1.92;;;10.50;99.90;;;;;;4921433;29;20052;-63
2022/11/03 07:08:27;;;;;;;16.42;3.30;;;10.50;99.90;;;;;;4922322;29;20044;-63
2022/11/03 07:11:14;;;;;;;11.40;2.58;;;10.60;99.90;;;;;;4921142;29;20052;-63
2022/11/03 07:13:41;;;;;;;12.43;2.53;;;10.60;99.90;;;;;;4921539;29;20102;-63
2022/11/03 07:16:35;;;;;;;10.13;2.25;;;10.60;99.90;;;;;;4922308;29;20091;-63
2022/11/03 07:19:16;;;;;;;13.68;2.83;;;10.60;99.90;;;;;;4920523;29;20134;-63
2022/11/03 07:21:51;;;;;;;12.13;2.42;;;10.60;99.90;;;;;;4921958;29;20532;-63
2022/11/03 07:24:22;;;;;;;10.65;2.63;;;10.60;99.90;;;;;;4921754;29;20063;-63
2022/11/03 07:26:52;;;;;;;8.77;2.65;;;10.60;99.90;;;;;;4920810;29;20107;-64
2022/11/03 07:29:22;;;;;;;13.27;2.88;;;10.70;99.90;;;;;;4921936;29;20051;-64
2022/11/03 07:31:50;;;;;;;15.10;4.00;;;10.70;99.90;;;;;;4920376;29;20090;-63
2022/11/03 07:34:22;;;;;;;12.70;2.95;;;10.60;99.90;;;;;;4921045;29;20052;-65
2022/11/03 07:36:49;;;;;;;10.43;2.80;;;10.60;99.90;;;;;;4921160;29;20056;-63
2022/11/03 07:39:18;;;;;;;11.13;2.90;;;10.70;99.90;;;;;;4903322;29;20144;-63
2022/11/03 07:41:45;;;;;;;11.15;2.92;;;10.70;99.90;;;;;;4921430;29;20440;-63
2022/11/03 07:44:21;;;;;;;12.05;2.70;;;10.80;99.90;;;;;;4920070;29;20052;-64
2022/11/03 07:46:48;;;;;;;11.57;2.67;;;10.80;99.90;;;;;;4920669;29;20156;-64
2022/11/03 07:49:34;;;;;;;9.27;2.63;;;11.10;99.90;;;;;;4920593;29;20047;-62
2022/11/03 07:52:00;;;;;;;11.88;2.40;;;10.80;99.90;;;;;;4918952;29;20056;-64
2022/11/03 07:54:33;;;;;;;14.48;2.88;;;10.80;99.90;;;;;;4920789;29;20059;-62
2022/11/03 07:57:10;;;;;;;11.10;2.67;;;10.90;99.90;;;;;;4920646;29;20071;-62
2022/11/03 07:59:45;;;;;;;11.38;2.75;;;10.90;99.90;;;;;;4886137;29;20079;-61
2022/11/03 08:02:40;;;;;;;11.32;3.25;;;11.00;99.90;;;;;;4915403;29;20108;-60
2022/11/03 08:05:06;;;;;;;9.63;2.42;;;11.00;99.90;;;;;;4921465;29;20528;-62
2022/11/03 08:07:32;;;;;;;15.93;3.47;;;11.00;99.90;;;;;;4924508;29;20052;-62
2022/11/03 08:09:58;;;;;;;12.73;2.72;;;11.00;99.90;;;;;;4923771;29;20040;-62
2022/11/03 08:12:24;;;;;;;14.00;2.70;;;11.00;99.90;;;;;;4907469;29;20062;-61
2022/11/03 08:14:49;;;;;;;11.80;2.97;;;11.10;99.90;;;;;;4906587;29;20044;-61
2022/11/03 08:17:15;;;;;;;14.73;2.75;;;11.10;99.90;;;;;;4925306;29;20104;-61
2022/11/03 08:19:41;;;;;;;11.57;3.00;;;11.10;99.90;;;;;;4924343;29;20402;-62
2022/11/03 08:22:07;;;;;;;9.95;2.58;;;11.20;99.90;;;;;;4924022;29;20113;-62
2022/11/03 08:24:33;;;;;;;13.45;2.95;;;11.30;99.90;;;;;;4924709;29;20059;-62
2022/11/03 08:26:59;;;;;;;11.45;3.25;;;11.40;99.90;;;;;;4922986;29;20052;-62
2022/11/03 08:29:27;;;;;;;8.77;2.67;;;11.50;99.90;;;;;;4923844;29;20055;-62
2022/11/03 08:31:53;;;;;;;16.15;2.88;;;11.40;99.90;;;;;;4906414;29;20060;-62
2022/11/03 08:34:19;;;;;;;13.85;2.92;;;11.50;99.90;;;;;;4924141;29;20070;-62
2022/11/03 08:36:45;;;;;;;14.38;2.67;;;11.50;99.90;;;;;;4924018;29;20040;-62
2022/11/03 08:39:11;;;;;;;13.35;2.63;;;11.60;99.90;;;;;;4923788;29;20378;-62
2022/11/03 08:41:36;;;;;;;12.00;2.97;;;11.70;99.90;;;;;;4905717;29;20048;-62
2022/11/03 08:44:02;;;;;;;11.95;3.00;;;11.90;99.90;;;;;;4922591;29;20095;-58
2022/11/03 08:46:28;;;;;;;12.10;2.80;;;11.90;99.90;;;;;;4923272;29;20040;-63
2022/11/03 08:48:53;;;;;;;13.20;2.88;;;11.90;99.90;;;;;;4921735;29;20048;-61
2022/11/03 08:51:19;;;;;;;12.07;2.38;;;12.00;99.90;;;;;;4914368;29;20092;-63
2022/11/03 08:53:49;;;;;;;11.70;2.70;;;12.00;99.90;;;;;;4922368;29;20100;-62
2022/11/03 08:56:15;;;;;;;11.63;2.47;;;12.10;99.90;;;;;;4891672;29;20534;-62
2022/11/03 08:58:42;;;;;;;13.35;2.83;;;12.10;99.90;;;;;;4910666;29;20127;-62
2022/11/03 09:01:07;;;;;;;11.32;2.53;;;12.20;99.90;;;;;;4887318;29;20096;-62
2022/11/03 09:03:33;;;;;;;13.00;2.53;;;12.20;99.90;;;;;;4905487;29;20049;-63
2022/11/03 09:05:59;;;;;;;11.77;2.80;;;12.20;99.90;;;;;;4902156;29;20048;-62
2022/11/03 09:08:24;;;;;;;13.00;2.70;;;12.30;99.90;;;;;;4901764;29;20052;-63
2022/11/03 09:10:50;;;;;;;13.80;2.95;;;12.30;99.90;;;;;;4899930;29;20278;-62
2022/11/03 09:13:16;;;;;;;12.10;2.80;;;12.30;99.90;;;;;;4901058;29;20108;-62
2022/11/03 09:15:41;;;;;;;11.25;2.65;;;12.30;99.90;;;;;;4900957;29;20048;-60
2022/11/03 09:18:07;;;;;;;12.10;3.38;;;12.20;99.90;;;;;;4883273;29;20052;-62
2022/11/03 09:20:32;;;;;;;12.80;2.70;;;12.30;99.90;;;;;;4915841;29;20075;-62
2022/11/03 09:22:58;;;;;;;11.95;3.05;;;12.20;99.90;;;;;;4918446;29;20044;-63
2022/11/03 09:25:24;;;;;;;13.93;2.65;;;12.20;99.90;;;;;;4902815;29;20095;-63
2022/11/03 09:27:49;;;;;;;11.70;2.63;;;12.30;99.90;;;;;;4918547;29;20492;-63
2022/11/03 09:30:16;;;;;;;12.40;3.05;;;12.20;99.90;;;;;;4902177;29;20055;-62
2022/11/03 09:32:42;;;;;;;11.55;2.70;;;12.40;99.90;;;;;;4917863;29;20584;-63
2022/11/03 09:35:08;;;;;;;9.90;2.47;;;12.40;99.90;;;;;;4918508;29;20603;-63
2022/11/03 09:37:34;;;;;;;9.57;2.90;;;12.30;99.90;;;;;;4917744;29;20048;-62
2022/11/03 09:40:00;;;;;;;10.93;2.88;;;12.40;99.90;;;;;;4918262;29;20254;-63
2022/11/03 09:42:26;;;;;;;14.75;3.38;;;12.40;99.90;;;;;;4918676;29;20120;-62
2022/11/03 09:44:53;;;;;;;12.23;2.78;;;12.50;99.90;;;;;;4917181;29;20060;-64
2022/11/03 09:47:32;;;;;;;10.90;2.83;;;12.60;99.90;;;;;;4919278;29;20055;-63
2022/11/03 09:49:58;;;;;;;11.07;2.80;;;12.60;99.90;;;;;;4919495;29;20203;-63
2022/11/03 09:52:24;;;;;;;11.40;2.85;;;12.70;99.90;;;;;;4918687;29;20040;-64
2022/11/03 09:54:56;;;;;;;13.23;2.95;;;12.70;99.90;;;;;;4901998;29;20580;-64
2022/11/03 09:57:24;;;;;;;;;;;12.80;99.90;;;;;;4901049;29;20048;-64
2022/11/03 09:59:50;;;;;;;11.73;2.65;;;12.80;99.90;;;;;;4919116;29;19927;-64
2022/11/03 10:02:26;;;;;;;11.63;2.90;;;12.90;99.90;;;;;;4900971;29;20054;-64
2022/11/03 10:04:54;;;;;;;8.95;2.88;;;12.90;99.90;;;;;;4915805;29;20532;-64
2022/11/03 10:07:21;;;;;;;13.23;2.65;;;13.00;99.90;;;;;;4918220;29;20036;-63
2022/11/03 10:09:49;;;;;;;11.70;2.85;;;13.20;99.90;;;;;;4901040;29;20048;-63
2022/11/03 10:12:15;;;;;;;10.43;2.40;;;13.10;99.90;;;;;;4917793;29;20055;-64
2022/11/03 10:14:43;;;;;;;11.65;3.05;;;13.30;99.90;;;;;;4918312;29;20051;-63
2022/11/03 10:17:18;;;;;;;12.20;2.67;;;13.20;99.90;;;;;;4902370;29;20056;-63
2022/11/03 10:19:50;;;;;;;10.35;2.55;;;13.40;99.90;;;;;;4917995;29;20540;-64
2022/11/03 10:22:16;;;;;;;;;;;13.40;99.90;;;;;;4919182;29;20095;-63
2022/11/03 10:24:42;;;;;;;12.02;2.85;;;13.40;99.90;;;;;;4919352;29;19934;-64
2022/11/03 10:27:24;;;;;;;12.60;2.75;;;13.40;99.90;;;;;;4917653;29;20032;-63
2022/11/03 10:30:11;;;;;;;11.82;3.38;;;13.40;99.90;;;;;;4916399;29;20060;-64
2022/11/03 10:32:37;;;;;;;10.20;2.92;;;13.30;99.90;;;;;;4915138;29;20059;-63
2022/11/03 10:35:32;;;;;;;13.50;2.70;;;13.50;99.90;;;;;;4884210;29;20127;-63
2022/11/03 10:38:33;;;;;;;14.85;3.25;;;13.40;99.90;;;;;;4913580;29;20099;-63
2022/11/03 10:41:09;;;;;;;9.45;2.42;;;13.40;99.90;;;;;;4914984;29;20437;-63
2022/11/03 10:43:35;;;;;;;12.23;2.58;;;13.50;99.90;;;;;;4914369;29;20052;-63
2022/11/03 10:46:27;;;;;;;12.43;2.97;;;13.50;99.90;;;;;;4900745;29;20056;-63
2022/11/03 10:49:11;;;;;;;8.82;2.20;;;13.50;99.90;;;;;;4910844;29;20059;-63
2022/11/03 10:51:37;;;;;;;13.90;2.88;;;13.60;99.90;;;;;;4919010;29;20080;-62
2022/11/03 10:54:04;;;;;;;15.23;3.08;;;13.60;99.90;;;;;;4916557;29;20044;-62
2022/11/03 10:56:31;;;;;;;13.73;2.97;;;13.70;99.90;;;;;;4900799;29;20056;-62
2022/11/03 10:58:59;;;;;;;10.45;3.33;;;13.70;99.90;;;;;;4917505;29;20048;-63
2022/11/03 11:01:25;;;;;;;11.82;2.35;;;13.90;99.90;;;;;;4916854;29;20583;-62
2022/11/03 11:03:51;;;;;;;13.10;2.38;;;13.90;99.90;;;;;;4918249;29;20511;-62
2022/11/03 11:06:24;;;;;;;8.50;2.83;;;13.90;99.90;;;;;;4918721;29;20048;-62
2022/11/03 11:08:53;;;;;;;10.60;2.30;;;14.00;99.90;;;;;;4921851;29;20036;-62
2022/11/03 11:11:22;;;;;;;11.32;2.70;;;14.10;99.90;;;;;;4921414;29;20036;-62
2022/11/03 11:14:35;;;;;;;10.40;2.20;;;14.20;99.90;;;;;;4913128;29;20041;-63
2022/11/03 11:17:02;;;;;;;10.13;2.67;;;14.10;99.90;;;;;;4904960;29;20049;-63
2022/11/03 11:19:29;;;;;;;8.38;2.30;;;14.20;99.90;;;;;;4903968;29;20087;-62
2022/11/03 11:21:54;;;;;;;16.88;3.28;;;14.20;99.90;;;;;;4903996;29;20422;-62
2022/11/03 11:24:42;;;;;;;10.57;2.20;;;14.20;99.90;;;;;;4904191;29;20065;-63
2022/11/03 11:27:35;;;;;;;11.15;2.63;;;14.30;99.90;;;;;;4903649;29;20040;-63
2022/11/03 11:30:25;;;;;;;9.77;2.20;;;14.40;99.90;;;;;;4904855;29;20051;-63
2022/11/03 11:33:00;;;;;;;11.90;2.30;;;14.40;99.90;;;;;;4862642;29;20060;-63
2022/11/03 11:35:25;;;;;;;10.25;2.33;;;14.50;99.90;;;;;;4916436;29;20048;-63
2022/11/03 11:37:52;;;;;;;12.75;3.03;;;14.60;99.90;;;;;;4911608;29;20041;-63
2022/11/03 11:40:24;;;;;;;9.95;2.38;;;14.60;99.90;;;;;;4894834;29;20107;-64
2022/11/03 11:43:19;;;;;;;8.30;2.33;;;14.70;99.90;;;;;;4916552;29;20508;-63
2022/11/03 11:46:21;;;;;;;9.88;2.20;;;14.80;99.90;;;;;;4908617;29;20074;-63
2022/11/03 11:48:56;;;;;;;7.82;2.08;;;14.80;99.90;;;;;;4892068;29;20044;-63
2022/11/03 11:51:23;;;;;;;10.18;2.38;;;14.70;99.90;;;;;;4923270;29;20050;-64
2022/11/03 11:53:50;;;;;;;8.25;2.28;;;14.70;99.90;;;;;;4907341;29;20168;-63
2022/11/03 11:56:17;;;;;;;8.60;2.10;;;14.60;99.90;;;;;;4904948;29;20032;-64
2022/11/03 11:58:44;;;;;;;11.15;3.08;;;14.60;99.90;;;;;;4923877;29;20519;-63
2022/11/03 12:01:29;;;;;;;9.10;1.92;;;14.50;99.90;;;;;;4923778;29;20100;-63
2022/11/03 12:03:57;;;;;;;11.20;2.80;;;14.50;99.90;;;;;;4923281;29;20048;-63
2022/11/03 12:06:37;;;;;;;10.88;2.58;;;14.50;99.90;;;;;;4922152;29;20111;-63
2022/11/03 12:09:04;;;;;;;10.60;2.05;;;14.50;99.90;;;;;;4922841;29;20063;-63
2022/11/03 12:11:44;;;;;;;11.48;2.95;;;14.60;99.90;;;;;;4924246;29;20055;-63
2022/11/03 12:14:42;;;;;;;11.32;2.45;;;14.60;99.90;;;;;;4923890;29;20052;-63
2022/11/03 12:17:17;;;;;;;8.88;2.17;;;14.60;99.90;;;;;;4924500;29;20071;-63
2022/11/03 12:19:44;;;;;;;9.73;2.90;;;14.60;99.90;;;;;;4923896;29;20083;-62
2022/11/03 12:22:41;;;;;;;9.98;2.20;;;14.60;99.90;;;;;;4924271;29;20507;-63
2022/11/03 12:25:34;;;;;;;9.77;2.33;;;14.60;99.90;;;;;;4913887;29;20080;-63
2022/11/03 12:27:59;;;;;;;12.38;2.45;;;14.60;99.90;;;;;;4924171;29;20095;-63
2022/11/03 12:30:25;;;;;;;9.73;2.47;;;14.50;99.90;;;;;;4907194;29;20087;-63
2022/11/03 12:32:52;;;;;;;10.10;2.40;;;14.60;99.90;;;;;;4924359;29;20055;-62
2022/11/03 12:35:17;;;;;;;7.55;2.60;;;14.60;99.90;;;;;;4906673;29;20059;-63
2022/11/03 12:37:43;;;;;;;9.93;2.40;;;14.50;99.90;;;;;;4924603;29;20064;-62
2022/11/03 12:40:12;;;;;;;11.82;2.40;;;14.60;99.90;;;;;;4905942;29;20075;-63
2022/11/03 12:42:38;;;;;;;10.32;2.58;;;14.60;99.90;;;;;;4924021;29;20052;-63
2022/11/03 12:45:04;;;;;;;6.95;2.80;;;14.60;99.90;;;;;;4923039;29;20044;-63
2022/11/03 12:47:30;;;;;;;9.73;2.10;;;14.60;99.90;;;;;;4906303;29;20056;-63
2022/11/03 12:49:56;;;;;;;7.65;2.20;;;14.60;99.90;;;;;;4919957;29;20068;-62
2022/11/03 12:52:21;;;;;;;11.38;2.10;;;14.60;99.90;;;;;;4921446;29;20111;-63
2022/11/03 12:54:47;;;;;;;10.15;2.17;;;14.60;99.90;;;;;;4923398;29;20067;-63
2022/11/03 12:57:13;;;;;;;10.70;2.05;;;14.60;99.90;;;;;;4921044;29;20051;-63
2022/11/03 12:59:39;;;;;;;9.13;1.98;;;14.60;99.90;;;;;;4922757;29;20116;-63
2022/11/03 13:02:05;;;;;;;11.77;3.00;;;14.70;99.90;;;;;;4922649;29;20040;-63
2022/11/03 13:04:31;;;;;;;8.02;2.05;;;14.70;99.90;;;;;;4906343;29;20090;-63
2022/11/03 13:06:56;;;;;;;9.90;1.80;;;14.80;99.90;;;;;;4923324;29;20044;-63
2022/11/03 13:09:22;;;;;;;11.30;2.30;;;14.70;99.90;;;;;;4904718;29;20059;-63
2022/11/03 13:14:32;;;;;;;9.30;2.28;;;14.70;99.90;;;;;;4917597;29;20059;-63
2022/11/03 13:16:57;;;;;;;8.45;2.10;;;14.70;99.90;;;;;;4923532;29;20432;-62